sensor_id;sensor_type;location;lat;lon;timestamp;temperature;humidity
26954;DHT22;14508;50.924;11.600;2023-02-19T00:01:43;9.80;99.90
26954;DHT22;14508;50.924;11.600;2023-02-19T00:04:14;9.80;99.90
26954;DHT22;14508;50.924;11.600;2023-02-19T00:06:42;9.80;99.90
26954;DHT22;14508;50.924;11.600;2023-02-19T00:09:13;9.80;99.90
26954;DHT22;14508;50.924;11.600;2023-02-19T00:11:42;9.80;99.90
26954;DHT22;14508;50.924;11.600;2023-02-19T00:14:15;9.80;99.90
26954;DHT22;14508;50.924;11.600;2023-02-19T00:16:43;9.80;99.90
26954;DHT22;14508;50.924;11.600;2023-02-19T00:19:13;9.80;99.90
26954;DHT22;14508;50.924;11.600;2023-02-19T00:21:41;9.80;99.90
26954;DHT22;14508;50.924;11.600;2023-02-19T00:24:10;9.70;99.90
26954;DHT22;14508;50.924;11.600;2023-02-19T00:26:38;9.70;99.90
26954;DHT22;14508;50.924;11.600;2023-02-19T00:29:08;9.70;99.90
26954;DHT22;14508;50.924;11.600;2023-02-19T00:31:38;9.70;99.90
26954;DHT22;14508;50.924;11.600;2023-02-19T00:34:06;9.70;99.90
26954;DHT22;14508;50.924;11.600;2023-02-19T00:36:37;9.70;99.90
26954;DHT22;14508;50.924;11.600;2023-02-19T00:39:06;9.70;99.90
26954;DHT22;14508;50.924;11.600;2023-02-19T00:41:34;9.70;99.90
26954;DHT22;14508;50.924;11.600;2023-02-19T00:44:04;9.70;99.90
26954;DHT22;14508;50.924;11.600;2023-02-19T00:46:36;9.70;99.90
26954;DHT22;14508;50.924;11.600;2023-02-19T00:49:05;9.70;99.90
26954;DHT22;14508;50.924;11.600;2023-02-19T00:51:36;9.70;99.90
26954;DHT22;14508;50.924;11.600;2023-02-19T00:54:04;9.70;99.90
26954;DHT22;14508;50.924;11.600;2023-02-19T00:56:32;9.70;99.90
26954;DHT22;14508;50.924;11.600;2023-02-19T00:59:01;9.70;99.90
26954;DHT22;14508;50.924;11.600;2023-02-19T01:01:29;9.70;99.90
26954;DHT22;14508;50.924;11.600;2023-02-19T01:03:58;9.60;99.90
26954;DHT22;14508;50.924;11.600;2023-02-19T01:06:26;9.70;99.90
26954;DHT22;14508;50.924;11.600;2023-02-19T01:08:55;9.70;99.90
26954;DHT22;14508;50.924;11.600;2023-02-19T01:11:23;9.70;99.90
26954;DHT22;14508;50.924;11.600;2023-02-19T01:13:51;9.70;99.90
26954;DHT22;14508;50.924;11.600;2023-02-19T01:16:20;9.60;99.90
26954;DHT22;14508;50.924;11.600;2023-02-19T01:18:50;9.60;99.90
26954;DHT22;14508;50.924;11.600;2023-02-19T01:21:22;9.60;99.90
26954;DHT22;14508;50.924;11.600;2023-02-19T01:23:51;9.60;99.90
26954;DHT22;14508;50.924;11.600;2023-02-19T01:26:20;9.60;99.90
26954;DHT22;14508;50.924;11.600;2023-02-19T01:28:49;9.60;99.90
26954;DHT22;14508;50.924;11.600;2023-02-19T01:31:19;9.60;99.90
26954;DHT22;14508;50.924;11.600;2023-02-19T01:33:49;9.60;99.90
26954;DHT22;14508;50.924;11.600;2023-02-19T01:36:19;9.60;99.90
26954;DHT22;14508;50.924;11.600;2023-02-19T01:38:48;9.60;99.90
26954;DHT22;14508;50.924;11.600;2023-02-19T01:41:18;9.60;99.90
26954;DHT22;14508;50.924;11.600;2023-02-19T01:43:58;9.60;99.90
26954;DHT22;14508;50.924;11.600;2023-02-19T01:46:28;9.60;99.90
26954;DHT22;14508;50.924;11.600;2023-02-19T01:48:58;9.60;99.90
26954;DHT22;14508;50.924;11.600;2023-02-19T01:51:30;9.70;99.90
26954;DHT22;14508;50.924;11.600;2023-02-19T01:54:01;9.60;99.90
26954;DHT22;14508;50.924;11.600;2023-02-19T01:56:33;9.60;99.90
26954;DHT22;14508;50.924;11.600;2023-02-19T01:59:02;9.70;99.90
26954;DHT22;14508;50.924;11.600;2023-02-19T02:01:30;9.70;99.90
26954;DHT22;14508;50.924;11.600;2023-02-19T02:03:59;9.70;99.90
26954;DHT22;14508;50.924;11.600;2023-02-19T02:06:30;9.70;99.90
26954;DHT22;14508;50.924;11.600;2023-02-19T02:09:00;9.70;99.90
26954;DHT22;14508;50.924;11.600;2023-02-19T02:11:47;9.70;99.90
26954;DHT22;14508;50.924;11.600;2023-02-19T02:14:15;9.70;99.90
26954;DHT22;14508;50.924;11.600;2023-02-19T02:16:51;9.70;99.90
26954;DHT22;14508;50.924;11.600;2023-02-19T02:19:30;9.70;99.90
26954;DHT22;14508;50.924;11.600;2023-02-19T02:22:05;9.60;99.90
26954;DHT22;14508;50.924;11.600;2023-02-19T02:25:04;9.70;99.90
26954;DHT22;14508;50.924;11.600;2023-02-19T02:27:48;9.70;99.90
26954;DHT22;14508;50.924;11.600;2023-02-19T02:30:28;9.70;99.90
26954;DHT22;14508;50.924;11.600;2023-02-19T02:37:11;9.70;99.90
26954;DHT22;14508;50.924;11.600;2023-02-19T02:39:40;9.70;99.90
26954;DHT22;14508;50.924;11.600;2023-02-19T02:42:08;9.70;99.90
26954;DHT22;14508;50.924;11.600;2023-02-19T02:45:25;9.80;99.90
26954;DHT22;14508;50.924;11.600;2023-02-19T02:48:23;9.80;99.90
26954;DHT22;14508;50.924;11.600;2023-02-19T02:50:56;9.80;99.90
26954;DHT22;14508;50.924;11.600;2023-02-19T02:53:31;9.80;99.90
26954;DHT22;14508;50.924;11.600;2023-02-19T02:56:17;9.80;99.90
26954;DHT22;14508;50.924;11.600;2023-02-19T02:58:48;9.70;99.90
26954;DHT22;14508;50.924;11.600;2023-02-19T03:01:21;9.70;99.90
26954;DHT22;14508;50.924;11.600;2023-02-19T03:04:09;9.70;99.90
26954;DHT22;14508;50.924;11.600;2023-02-19T03:06:39;9.70;99.90
26954;DHT22;14508;50.924;11.600;2023-02-19T03:09:11;9.70;99.90
26954;DHT22;14508;50.924;11.600;2023-02-19T03:11:45;9.70;99.90
26954;DHT22;14508;50.924;11.600;2023-02-19T03:14:36;9.70;99.90
26954;DHT22;14508;50.924;11.600;2023-02-19T03:17:30;9.70;99.90
26954;DHT22;14508;50.924;11.600;2023-02-19T03:20:17;9.80;99.90
26954;DHT22;14508;50.924;11.600;2023-02-19T03:22:48;9.80;99.90
26954;DHT22;14508;50.924;11.600;2023-02-19T03:25:19;9.80;99.90
26954;DHT22;14508;50.924;11.600;2023-02-19T03:28:08;9.90;99.90
26954;DHT22;14508;50.924;11.600;2023-02-19T03:30:40;10.00;99.90
26954;DHT22;14508;50.924;11.600;2023-02-19T03:33:13;10.00;99.90
26954;DHT22;14508;50.924;11.600;2023-02-19T03:35:45;10.00;99.90
26954;DHT22;14508;50.924;11.600;2023-02-19T03:38:16;10.10;99.90
26954;DHT22;14508;50.924;11.600;2023-02-19T03:40:53;10.00;99.90
26954;DHT22;14508;50.924;11.600;2023-02-19T03:43:29;10.10;99.90
26954;DHT22;14508;50.924;11.600;2023-02-19T03:46:06;10.10;99.90
26954;DHT22;14508;50.924;11.600;2023-02-19T03:48:42;10.10;99.90
26954;DHT22;14508;50.924;11.600;2023-02-19T03:51:29;10.10;99.90
26954;DHT22;14508;50.924;11.600;2023-02-19T03:54:09;10.20;99.90
26954;DHT22;14508;50.924;11.600;2023-02-19T03:56:43;10.20;99.90
26954;DHT22;14508;50.924;11.600;2023-02-19T03:59:16;10.20;99.90
26954;DHT22;14508;50.924;11.600;2023-02-19T04:01:49;10.10;99.90
26954;DHT22;14508;50.924;11.600;2023-02-19T04:04:23;10.10;99.90
26954;DHT22;14508;50.924;11.600;2023-02-19T04:06:56;10.00;99.90
26954;DHT22;14508;50.924;11.600;2023-02-19T04:09:31;10.00;99.90
26954;DHT22;14508;50.924;11.600;2023-02-19T04:12:06;10.00;99.90
26954;DHT22;14508;50.924;11.600;2023-02-19T04:14:38;10.10;99.90
26954;DHT22;14508;50.924;11.600;2023-02-19T04:17:11;10.10;99.90
26954;DHT22;14508;50.924;11.600;2023-02-19T04:19:42;10.10;99.90
26954;DHT22;14508;50.924;11.600;2023-02-19T04:22:11;10.10;99.90
26954;DHT22;14508;50.924;11.600;2023-02-19T04:24:42;10.10;99.90
26954;DHT22;14508;50.924;11.600;2023-02-19T04:27:13;10.10;99.90
26954;DHT22;14508;50.924;11.600;2023-02-19T04:29:41;10.10;99.90
26954;DHT22;14508;50.924;11.600;2023-02-19T04:32:10;10.20;99.90
26954;DHT22;14508;50.924;11.600;2023-02-19T04:34:38;10.30;99.90
26954;DHT22;14508;50.924;11.600;2023-02-19T04:37:07;10.30;99.90
26954;DHT22;14508;50.924;11.600;2023-02-19T04:39:35;10.30;99.90
26954;DHT22;14508;50.924;11.600;2023-02-19T04:42:03;10.30;99.90
26954;DHT22;14508;50.924;11.600;2023-02-19T04:44:32;10.40;99.90
26954;DHT22;14508;50.924;11.600;2023-02-19T04:47:00;10.50;99.90
26954;DHT22;14508;50.924;11.600;2023-02-19T04:49:28;10.50;99.90
26954;DHT22;14508;50.924;11.600;2023-02-19T04:51:56;10.50;99.90
26954;DHT22;14508;50.924;11.600;2023-02-19T04:54:25;10.50;99.90
26954;DHT22;14508;50.924;11.600;2023-02-19T04:56:53;10.50;99.90
26954;DHT22;14508;50.924;11.600;2023-02-19T04:59:21;10.50;99.90
26954;DHT22;14508;50.924;11.600;2023-02-19T05:01:49;10.50;99.90
26954;DHT22;14508;50.924;11.600;2023-02-19T05:04:17;10.60;99.90
26954;DHT22;14508;50.924;11.600;2023-02-19T05:06:45;10.60;99.90
26954;DHT22;14508;50.924;11.600;2023-02-19T05:09:13;10.50;99.90
26954;DHT22;14508;50.924;11.600;2023-02-19T05:11:42;10.40;99.90
26954;DHT22;14508;50.924;11.600;2023-02-19T05:14:10;10.40;99.90
26954;DHT22;14508;50.924;11.600;2023-02-19T05:16:38;10.30;99.90
26954;DHT22;14508;50.924;11.600;2023-02-19T05:19:06;10.30;99.90
26954;DHT22;14508;50.924;11.600;2023-02-19T05:21:34;10.20;99.90
26954;DHT22;14508;50.924;11.600;2023-02-19T05:24:02;10.20;99.90
26954;DHT22;14508;50.924;11.600;2023-02-19T05:26:30;10.10;99.90
26954;DHT22;14508;50.924;11.600;2023-02-19T05:28:59;10.00;99.90
26954;DHT22;14508;50.924;11.600;2023-02-19T05:31:27;9.90;99.90
26954;DHT22;14508;50.924;11.600;2023-02-19T05:33:55;9.70;99.90
26954;DHT22;14508;50.924;11.600;2023-02-19T05:36:23;9.60;99.90
26954;DHT22;14508;50.924;11.600;2023-02-19T05:38:52;9.30;99.90
26954;DHT22;14508;50.924;11.600;2023-02-19T05:41:21;9.20;99.90
26954;DHT22;14508;50.924;11.600;2023-02-19T05:43:50;9.10;99.90
26954;DHT22;14508;50.924;11.600;2023-02-19T05:46:21;9.00;99.90
26954;DHT22;14508;50.924;11.600;2023-02-19T05:48:50;8.80;99.90
26954;DHT22;14508;50.924;11.600;2023-02-19T05:51:20;8.70;99.90
26954;DHT22;14508;50.924;11.600;2023-02-19T05:53:48;8.70;99.90
26954;DHT22;14508;50.924;11.600;2023-02-19T05:56:33;8.60;99.90
26954;DHT22;14508;50.924;11.600;2023-02-19T05:59:03;8.50;99.90
26954;DHT22;14508;50.924;11.600;2023-02-19T06:01:34;8.30;99.90
26954;DHT22;14508;50.924;11.600;2023-02-19T06:04:02;8.20;99.90
26954;DHT22;14508;50.924;11.600;2023-02-19T06:06:30;8.10;99.90
26954;DHT22;14508;50.924;11.600;2023-02-19T06:08:58;8.00;99.90
26954;DHT22;14508;50.924;11.600;2023-02-19T06:11:28;7.90;99.90
26954;DHT22;14508;50.924;11.600;2023-02-19T06:13:56;7.90;99.90
26954;DHT22;14508;50.924;11.600;2023-02-19T06:16:24;7.90;99.90
26954;DHT22;14508;50.924;11.600;2023-02-19T06:18:53;7.80;99.90
26954;DHT22;14508;50.924;11.600;2023-02-19T06:21:21;7.80;99.90
26954;DHT22;14508;50.924;11.600;2023-02-19T06:23:49;7.80;99.90
26954;DHT22;14508;50.924;11.600;2023-02-19T06:26:19;7.80;99.90
26954;DHT22;14508;50.924;11.600;2023-02-19T06:28:48;7.80;99.90
26954;DHT22;14508;50.924;11.600;2023-02-19T06:31:17;7.80;99.90
26954;DHT22;14508;50.924;11.600;2023-02-19T06:33:46;7.80;99.90
26954;DHT22;14508;50.924;11.600;2023-02-19T06:36:18;7.80;99.90
26954;DHT22;14508;50.924;11.600;2023-02-19T06:38:46;7.80;99.90
26954;DHT22;14508;50.924;11.600;2023-02-19T06:41:15;7.80;99.90
26954;DHT22;14508;50.924;11.600;2023-02-19T06:43:43;7.90;99.90
26954;DHT22;14508;50.924;11.600;2023-02-19T06:46:12;7.80;99.90
26954;DHT22;14508;50.924;11.600;2023-02-19T06:48:41;7.80;99.90
26954;DHT22;14508;50.924;11.600;2023-02-19T06:51:11;7.90;99.90
26954;DHT22;14508;50.924;11.600;2023-02-19T06:53:41;7.90;99.90
26954;DHT22;14508;50.924;11.600;2023-02-19T06:56:21;7.90;99.90
26954;DHT22;14508;50.924;11.600;2023-02-19T06:58:50;7.90;99.90
26954;DHT22;14508;50.924;11.600;2023-02-19T07:01:18;7.90;99.90
26954;DHT22;14508;50.924;11.600;2023-02-19T07:03:46;7.90;99.90
26954;DHT22;14508;50.924;11.600;2023-02-19T07:06:14;7.90;99.90
26954;DHT22;14508;50.924;11.600;2023-02-19T07:08:44;7.90;99.90
26954;DHT22;14508;50.924;11.600;2023-02-19T07:11:11;7.90;99.90
26954;DHT22;14508;50.924;11.600;2023-02-19T07:13:39;7.90;99.90
26954;DHT22;14508;50.924;11.600;2023-02-19T07:16:08;7.90;99.90
26954;DHT22;14508;50.924;11.600;2023-02-19T07:18:38;8.00;99.90
26954;DHT22;14508;50.924;11.600;2023-02-19T07:21:08;8.00;99.90
26954;DHT22;14508;50.924;11.600;2023-02-19T07:23:37;8.00;99.90
26954;DHT22;14508;50.924;11.600;2023-02-19T07:26:09;8.10;99.90
26954;DHT22;14508;50.924;11.600;2023-02-19T07:28:39;8.10;99.90
26954;DHT22;14508;50.924;11.600;2023-02-19T07:31:07;8.10;99.90
26954;DHT22;14508;50.924;11.600;2023-02-19T07:33:35;8.10;99.90
26954;DHT22;14508;50.924;11.600;2023-02-19T07:36:06;8.10;99.90
26954;DHT22;14508;50.924;11.600;2023-02-19T07:38:34;8.20;99.90
26954;DHT22;14508;50.924;11.600;2023-02-19T07:41:03;8.20;99.90
26954;DHT22;14508;50.924;11.600;2023-02-19T07:43:35;8.20;99.90
26954;DHT22;14508;50.924;11.600;2023-02-19T07:46:04;8.10;99.90
26954;DHT22;14508;50.924;11.600;2023-02-19T07:48:34;8.10;99.90
26954;DHT22;14508;50.924;11.600;2023-02-19T07:51:03;8.10;99.90
26954;DHT22;14508;50.924;11.600;2023-02-19T07:53:32;8.20;99.90
26954;DHT22;14508;50.924;11.600;2023-02-19T07:56:01;8.20;99.90
26954;DHT22;14508;50.924;11.600;2023-02-19T07:58:31;8.20;99.90
26954;DHT22;14508;50.924;11.600;2023-02-19T08:01:07;8.20;99.90
26954;DHT22;14508;50.924;11.600;2023-02-19T08:03:36;8.20;99.90
26954;DHT22;14508;50.924;11.600;2023-02-19T08:06:04;8.30;99.90
26954;DHT22;14508;50.924;11.600;2023-02-19T08:08:33;8.30;99.90
26954;DHT22;14508;50.924;11.600;2023-02-19T08:11:02;8.40;99.90
26954;DHT22;14508;50.924;11.600;2023-02-19T08:13:48;8.50;99.90
26954;DHT22;14508;50.924;11.600;2023-02-19T08:16:19;8.60;99.90
26954;DHT22;14508;50.924;11.600;2023-02-19T08:19:06;8.70;99.90
26954;DHT22;14508;50.924;11.600;2023-02-19T08:21:34;8.80;99.90
26954;DHT22;14508;50.924;11.600;2023-02-19T08:24:03;8.70;99.90
26954;DHT22;14508;50.924;11.600;2023-02-19T08:26:32;8.70;99.90
26954;DHT22;14508;50.924;11.600;2023-02-19T08:29:00;8.70;99.90
26954;DHT22;14508;50.924;11.600;2023-02-19T08:31:29;8.80;99.90
26954;DHT22;14508;50.924;11.600;2023-02-19T08:33:57;8.90;99.90
26954;DHT22;14508;50.924;11.600;2023-02-19T08:36:25;9.00;99.90
26954;DHT22;14508;50.924;11.600;2023-02-19T08:38:53;8.90;99.90
26954;DHT22;14508;50.924;11.600;2023-02-19T08:41:21;9.00;99.90
26954;DHT22;14508;50.924;11.600;2023-02-19T08:43:49;9.10;99.90
26954;DHT22;14508;50.924;11.600;2023-02-19T08:46:17;9.10;99.90
26954;DHT22;14508;50.924;11.600;2023-02-19T08:48:46;9.00;99.90
26954;DHT22;14508;50.924;11.600;2023-02-19T08:51:14;9.10;99.90
26954;DHT22;14508;50.924;11.600;2023-02-19T08:53:42;9.10;99.90
26954;DHT22;14508;50.924;11.600;2023-02-19T08:56:12;9.20;99.90
26954;DHT22;14508;50.924;11.600;2023-02-19T08:58:40;9.10;99.90
26954;DHT22;14508;50.924;11.600;2023-02-19T09:01:09;9.20;99.90
26954;DHT22;14508;50.924;11.600;2023-02-19T09:03:38;8.90;99.90
26954;DHT22;14508;50.924;11.600;2023-02-19T09:06:12;8.70;99.90
26954;DHT22;14508;50.924;11.600;2023-02-19T09:08:41;8.60;99.90
26954;DHT22;14508;50.924;11.600;2023-02-19T09:11:09;8.40;99.90
26954;DHT22;14508;50.924;11.600;2023-02-19T09:13:37;8.20;99.90
26954;DHT22;14508;50.924;11.600;2023-02-19T09:16:05;7.90;99.90
26954;DHT22;14508;50.924;11.600;2023-02-19T09:18:33;7.50;99.90
26954;DHT22;14508;50.924;11.600;2023-02-19T09:21:01;7.40;99.90
26954;DHT22;14508;50.924;11.600;2023-02-19T09:23:33;7.10;99.90
26954;DHT22;14508;50.924;11.600;2023-02-19T09:26:02;6.90;99.90
26954;DHT22;14508;50.924;11.600;2023-02-19T09:28:34;6.90;99.90
26954;DHT22;14508;50.924;11.600;2023-02-19T09:31:03;6.80;99.90
26954;DHT22;14508;50.924;11.600;2023-02-19T09:33:32;6.70;99.90
26954;DHT22;14508;50.924;11.600;2023-02-19T09:36:01;6.70;99.90
26954;DHT22;14508;50.924;11.600;2023-02-19T09:38:29;6.70;99.90
26954;DHT22;14508;50.924;11.600;2023-02-19T09:41:05;6.70;99.90
26954;DHT22;14508;50.924;11.600;2023-02-19T09:43:33;6.70;99.90
26954;DHT22;14508;50.924;11.600;2023-02-19T09:46:08;6.70;99.90
26954;DHT22;14508;50.924;11.600;2023-02-19T09:48:39;6.60;99.90
26954;DHT22;14508;50.924;11.600;2023-02-19T09:51:07;6.50;99.90
26954;DHT22;14508;50.924;11.600;2023-02-19T09:53:40;6.40;99.90
26954;DHT22;14508;50.924;11.600;2023-02-19T09:56:10;6.50;99.90
26954;DHT22;14508;50.924;11.600;2023-02-19T09:58:42;6.40;99.90
26954;DHT22;14508;50.924;11.600;2023-02-19T10:01:13;6.50;99.90
26954;DHT22;14508;50.924;11.600;2023-02-19T10:03:44;6.40;99.90
26954;DHT22;14508;50.924;11.600;2023-02-19T10:06:16;6.40;99.90
26954;DHT22;14508;50.924;11.600;2023-02-19T10:08:47;6.40;99.90
26954;DHT22;14508;50.924;11.600;2023-02-19T10:11:18;6.40;99.90
26954;DHT22;14508;50.924;11.600;2023-02-19T10:13:48;6.30;99.90
26954;DHT22;14508;50.924;11.600;2023-02-19T10:16:20;6.40;99.90
26954;DHT22;14508;50.924;11.600;2023-02-19T10:18:50;6.40;99.90
26954;DHT22;14508;50.924;11.600;2023-02-19T10:21:21;6.30;99.90
26954;DHT22;14508;50.924;11.600;2023-02-19T10:23:52;6.30;99.90
26954;DHT22;14508;50.924;11.600;2023-02-19T10:26:22;6.30;99.90
26954;DHT22;14508;50.924;11.600;2023-02-19T10:28:50;6.30;99.90
26954;DHT22;14508;50.924;11.600;2023-02-19T10:31:21;6.30;99.90
26954;DHT22;14508;50.924;11.600;2023-02-19T10:33:51;6.30;99.90
26954;DHT22;14508;50.924;11.600;2023-02-19T10:36:24;6.20;99.90
26954;DHT22;14508;50.924;11.600;2023-02-19T10:38:58;6.10;99.90
26954;DHT22;14508;50.924;11.600;2023-02-19T10:41:29;6.10;99.90
26954;DHT22;14508;50.924;11.600;2023-02-19T10:44:02;6.10;99.90
26954;DHT22;14508;50.924;11.600;2023-02-19T10:46:33;6.00;99.90
26954;DHT22;14508;50.924;11.600;2023-02-19T10:49:04;6.00;99.90
26954;DHT22;14508;50.924;11.600;2023-02-19T10:51:34;6.00;99.90
26954;DHT22;14508;50.924;11.600;2023-02-19T10:54:05;5.90;99.90
26954;DHT22;14508;50.924;11.600;2023-02-19T10:56:34;5.90;99.90
26954;DHT22;14508;50.924;11.600;2023-02-19T10:59:23;5.90;99.90
26954;DHT22;14508;50.924;11.600;2023-02-19T11:01:53;6.00;99.90
26954;DHT22;14508;50.924;11.600;2023-02-19T11:04:22;6.00;99.90
26954;DHT22;14508;50.924;11.600;2023-02-19T11:06:51;6.00;99.90
26954;DHT22;14508;50.924;11.600;2023-02-19T11:09:26;6.00;99.90
26954;DHT22;14508;50.924;11.600;2023-02-19T11:11:56;6.10;99.90
26954;DHT22;14508;50.924;11.600;2023-02-19T11:14:26;6.30;99.90
26954;DHT22;14508;50.924;11.600;2023-02-19T11:16:57;6.30;99.90
26954;DHT22;14508;50.924;11.600;2023-02-19T11:19:30;6.40;99.90
26954;DHT22;14508;50.924;11.600;2023-02-19T11:21:59;6.40;99.90
26954;DHT22;14508;50.924;11.600;2023-02-19T11:24:30;6.50;99.90
26954;DHT22;14508;50.924;11.600;2023-02-19T11:27:03;6.60;99.90
26954;DHT22;14508;50.924;11.600;2023-02-19T11:29:32;6.60;99.90
26954;DHT22;14508;50.924;11.600;2023-02-19T11:32:24;6.60;99.90
26954;DHT22;14508;50.924;11.600;2023-02-19T11:35:13;6.70;99.90
26954;DHT22;14508;50.924;11.600;2023-02-19T11:37:54;6.70;99.90
26954;DHT22;14508;50.924;11.600;2023-02-19T11:40:31;6.80;99.90
26954;DHT22;14508;50.924;11.600;2023-02-19T11:43:09;6.90;99.90
26954;DHT22;14508;50.924;11.600;2023-02-19T11:45:43;6.90;99.90
26954;DHT22;14508;50.924;11.600;2023-02-19T11:48:25;6.90;99.90
26954;DHT22;14508;50.924;11.600;2023-02-19T11:53:47;6.90;99.90
26954;DHT22;14508;50.924;11.600;2023-02-19T11:56:20;7.10;99.90
26954;DHT22;14508;50.924;11.600;2023-02-19T11:58:59;7.20;99.90
26954;DHT22;14508;50.924;11.600;2023-02-19T12:01:52;7.30;99.90
26954;DHT22;14508;50.924;11.600;2023-02-19T12:07:56;7.50;99.90
26954;DHT22;14508;50.924;11.600;2023-02-19T12:10:32;7.60;99.90
26954;DHT22;14508;50.924;11.600;2023-02-19T12:13:09;7.70;99.90
26954;DHT22;14508;50.924;11.600;2023-02-19T12:15:51;7.70;99.90
26954;DHT22;14508;50.924;11.600;2023-02-19T12:21:25;7.70;99.90
26954;DHT22;14508;50.924;11.600;2023-02-19T12:26:59;7.50;99.90
26954;DHT22;14508;50.924;11.600;2023-02-19T12:29:40;7.50;99.90
26954;DHT22;14508;50.924;11.600;2023-02-19T12:32:41;7.50;99.90
26954;DHT22;14508;50.924;11.600;2023-02-19T12:35:37;7.40;99.90
26954;DHT22;14508;50.924;11.600;2023-02-19T12:38:17;7.40;99.90
26954;DHT22;14508;50.924;11.600;2023-02-19T12:40:59;7.40;99.90
26954;DHT22;14508;50.924;11.600;2023-02-19T12:43:31;7.40;99.90
26954;DHT22;14508;50.924;11.600;2023-02-19T12:46:03;7.50;99.90
26954;DHT22;14508;50.924;11.600;2023-02-19T12:48:39;7.70;99.90
26954;DHT22;14508;50.924;11.600;2023-02-19T12:51:16;7.80;99.90
26954;DHT22;14508;50.924;11.600;2023-02-19T12:53:48;7.80;99.90
26954;DHT22;14508;50.924;11.600;2023-02-19T12:56:22;7.80;99.90
26954;DHT22;14508;50.924;11.600;2023-02-19T12:58:53;7.80;99.90
26954;DHT22;14508;50.924;11.600;2023-02-19T13:01:25;7.80;99.90
26954;DHT22;14508;50.924;11.600;2023-02-19T13:04:13;7.80;99.90
26954;DHT22;14508;50.924;11.600;2023-02-19T13:06:46;7.70;99.90
26954;DHT22;14508;50.924;11.600;2023-02-19T13:09:20;7.60;99.90
26954;DHT22;14508;50.924;11.600;2023-02-19T13:11:55;7.70;99.90
26954;DHT22;14508;50.924;11.600;2023-02-19T13:14:27;7.70;99.90
26954;DHT22;14508;50.924;11.600;2023-02-19T13:16:59;7.70;99.90
26954;DHT22;14508;50.924;11.600;2023-02-19T13:19:29;7.70;99.90
26954;DHT22;14508;50.924;11.600;2023-02-19T13:22:06;7.60;99.90
26954;DHT22;14508;50.924;11.600;2023-02-19T13:24:58;7.60;99.90
26954;DHT22;14508;50.924;11.600;2023-02-19T13:27:40;7.50;99.90
26954;DHT22;14508;50.924;11.600;2023-02-19T13:30:28;7.40;99.90
26954;DHT22;14508;50.924;11.600;2023-02-19T13:33:04;7.30;99.90
26954;DHT22;14508;50.924;11.600;2023-02-19T13:36:00;7.20;99.90
26954;DHT22;14508;50.924;11.600;2023-02-19T13:38:35;7.20;99.90
26954;DHT22;14508;50.924;11.600;2023-02-19T13:41:04;7.20;99.90
26954;DHT22;14508;50.924;11.600;2023-02-19T13:43:34;7.30;99.90
26954;DHT22;14508;50.924;11.600;2023-02-19T13:46:06;7.30;99.90
26954;DHT22;14508;50.924;11.600;2023-02-19T13:48:36;7.30;99.90
26954;DHT22;14508;50.924;11.600;2023-02-19T13:51:48;7.40;99.90
26954;DHT22;14508;50.924;11.600;2023-02-19T13:54:23;7.40;99.90
26954;DHT22;14508;50.924;11.600;2023-02-19T13:57:19;7.30;99.90
26954;DHT22;14508;50.924;11.600;2023-02-19T13:59:52;7.30;99.90
26954;DHT22;14508;50.924;11.600;2023-02-19T14:02:27;7.20;99.90
26954;DHT22;14508;50.924;11.600;2023-02-19T14:04:58;7.20;99.90
26954;DHT22;14508;50.924;11.600;2023-02-19T14:10:56;7.20;99.90
26954;DHT22;14508;50.924;11.600;2023-02-19T14:13:55;7.10;99.90
26954;DHT22;14508;50.924;11.600;2023-02-19T14:19:52;7.10;99.90
26954;DHT22;14508;50.924;11.600;2023-02-19T14:22:44;7.00;99.90
26954;DHT22;14508;50.924;11.600;2023-02-19T14:25:32;7.00;99.90
26954;DHT22;14508;50.924;11.600;2023-02-19T14:28:19;7.10;99.90
26954;DHT22;14508;50.924;11.600;2023-02-19T14:30:50;7.00;99.90
26954;DHT22;14508;50.924;11.600;2023-02-19T14:33:21;6.90;99.90
26954;DHT22;14508;50.924;11.600;2023-02-19T14:35:53;6.80;99.90
26954;DHT22;14508;50.924;11.600;2023-02-19T14:38:25;6.90;99.90
26954;DHT22;14508;50.924;11.600;2023-02-19T14:40:55;6.90;99.90
26954;DHT22;14508;50.924;11.600;2023-02-19T14:43:25;6.90;99.90
26954;DHT22;14508;50.924;11.600;2023-02-19T14:45:56;6.90;99.90
26954;DHT22;14508;50.924;11.600;2023-02-19T14:48:27;6.90;99.90
26954;DHT22;14508;50.924;11.600;2023-02-19T14:51:00;7.00;99.90
26954;DHT22;14508;50.924;11.600;2023-02-19T14:53:32;6.90;99.90
26954;DHT22;14508;50.924;11.600;2023-02-19T14:56:04;7.00;99.90
26954;DHT22;14508;50.924;11.600;2023-02-19T14:58:35;6.90;99.90
26954;DHT22;14508;50.924;11.600;2023-02-19T15:01:06;6.90;99.90
26954;DHT22;14508;50.924;11.600;2023-02-19T15:03:53;6.90;99.90
26954;DHT22;14508;50.924;11.600;2023-02-19T15:06:22;6.80;99.90
26954;DHT22;14508;50.924;11.600;2023-02-19T15:08:52;6.80;99.90
26954;DHT22;14508;50.924;11.600;2023-02-19T15:11:24;6.80;99.90
26954;DHT22;14508;50.924;11.600;2023-02-19T15:13:56;6.90;99.90
26954;DHT22;14508;50.924;11.600;2023-02-19T15:16:26;6.80;99.90
26954;DHT22;14508;50.924;11.600;2023-02-19T15:18:56;6.70;99.90
26954;DHT22;14508;50.924;11.600;2023-02-19T15:21:30;6.70;99.90
26954;DHT22;14508;50.924;11.600;2023-02-19T15:24:00;6.70;99.90
26954;DHT22;14508;50.924;11.600;2023-02-19T15:26:34;6.70;99.90
26954;DHT22;14508;50.924;11.600;2023-02-19T15:29:11;6.80;99.90
26954;DHT22;14508;50.924;11.600;2023-02-19T15:31:44;6.80;99.90
26954;DHT22;14508;50.924;11.600;2023-02-19T15:34:19;6.90;99.90
26954;DHT22;14508;50.924;11.600;2023-02-19T15:36:51;6.90;99.90
26954;DHT22;14508;50.924;11.600;2023-02-19T15:39:23;6.90;99.90
26954;DHT22;14508;50.924;11.600;2023-02-19T15:41:55;6.90;99.90
26954;DHT22;14508;50.924;11.600;2023-02-19T15:44:44;6.90;99.90
26954;DHT22;14508;50.924;11.600;2023-02-19T15:47:21;6.90;99.90
26954;DHT22;14508;50.924;11.600;2023-02-19T15:49:54;6.90;99.90
26954;DHT22;14508;50.924;11.600;2023-02-19T15:52:30;6.90;99.90
26954;DHT22;14508;50.924;11.600;2023-02-19T15:55:04;6.90;99.90
26954;DHT22;14508;50.924;11.600;2023-02-19T15:57:37;6.90;99.90
26954;DHT22;14508;50.924;11.600;2023-02-19T16:00:14;6.80;99.90
26954;DHT22;14508;50.924;11.600;2023-02-19T16:02:46;6.80;99.90
26954;DHT22;14508;50.924;11.600;2023-02-19T16:05:23;6.80;99.90
26954;DHT22;14508;50.924;11.600;2023-02-19T16:08:05;6.80;99.90
26954;DHT22;14508;50.924;11.600;2023-02-19T16:10:33;6.90;99.90
26954;DHT22;14508;50.924;11.600;2023-02-19T16:13:03;6.80;99.90
26954;DHT22;14508;50.924;11.600;2023-02-19T16:15:34;6.90;99.90
26954;DHT22;14508;50.924;11.600;2023-02-19T16:18:02;6.90;99.90
26954;DHT22;14508;50.924;11.600;2023-02-19T16:20:33;6.80;99.90
26954;DHT22;14508;50.924;11.600;2023-02-19T16:23:04;6.80;99.90
26954;DHT22;14508;50.924;11.600;2023-02-19T16:25:38;6.80;99.90
26954;DHT22;14508;50.924;11.600;2023-02-19T16:28:12;6.80;99.90